Tiempo atmosférico en la estación meteorológica de Huercal Overa, Almería (295 m.)



Fecha
DESCASC
Temp. máxima en grados centígrados (hora)
DESCASC
Temp. mínima en grados centígrados (hora)
DESCASC
Temp. media en grados centígrados
DESCASC
Racha de viento máxima en m/sg (hora)
DESCASC
Velocidad máxima media en intervalos de 10 minutos(hora)
DESCASC
Precipitaciones diarias en mm
DESCASC
Precipitaciones de 00:00 a 06:00 en mm
DESCASC
Precipitaciones de 06:00 a 12:00 en mm
DESCASC
Precipitaciones de 12:00 a 18:00 en mm
DESCASC
Precipitaciones de 18:00 a 24:00 en mm
DESCASC

Gráficas

Temp. máximas Temp. mínimas Temp. medias Precipitaciones Rachas de viento máximas Velocidades máximas media en intervalos de 10 minutos

Datos horarios

Fecha y hora oficial Temperatura (ºC) Velocidad del viento (km/h) Dirección del viento Racha (km/h) Dirección de racha Precipitación (mm) Presión (hPa) Tendencia (hPa) Humedad (%)
2019-12-15 23:00:00 8.8 0 Calma 4 Noroeste 0 977.9 -0.9 82
2019-12-15 22:00:00 9.4 0 Calma 4 Sudeste 0 978.4 0 82
2019-12-15 21:00:00 9.9 0 Calma 4 Noroeste 0 978.8 0.1 82
2019-12-15 20:00:00 10.3 0 Calma 5 Noroeste 0 978.8 0.1 82
2019-12-15 19:00:00 11 0 Calma 10 Sudoeste 0 978.4 -0.4 82
2019-12-15 18:00:00 11.5 7 Sudoeste 11 Sudoeste 0 978.7 -0.1 80
2019-12-15 17:00:00 12.8 5 Sudoeste 18 Sur 0 978.7 -0.9 73
2019-12-15 16:00:00 14.6 11 Sudoeste 17 Sur 0 978.8 -1.6 56
2019-12-15 15:00:00 15.9 8 Sudoeste 16 Sudoeste 0 978.8 -2.7 35
2019-12-15 14:00:00 18.5 0 Calma 7 Este 0 979.6 -2.1 27
2019-12-15 13:00:00 17.1 2 Sudeste 8 Este 0 980.4 -1.8 32
2019-12-15 12:00:00 15.1 2 Este 6 Sudeste 0 981.5 0.3 36
2019-12-15 11:00:00 12.9 0 Calma 7 Sudeste 0 981.7 0.7 45
2019-12-15 10:00:00 9.4 0 Calma 6 Este 0 982.2 1.6 60
2019-12-15 09:00:00 5.8 2 Este 5 Este 0 981.2 0.6 80
2019-12-15 08:00:00 4.6 2 Norte 5 Nordeste 0 981 0 83
2019-12-15 07:00:00 4.5 4 Nordeste 7 Nordeste 0 980.6 -0.8 82
2019-12-15 06:00:00 4.9 0 Calma 5 Este 0 980.6 -0.8 83
2019-12-15 05:00:00 5.5 4 Nordeste 23 Nordeste 0 981 -0.6 82
2019-12-15 04:00:00 5.6 0 Calma 5 Este 0 981.4 -1 81
2019-12-15 03:00:00 6.3 0 Calma 4 Noroeste 0 981.4 -1.2 77
2019-12-15 02:00:00 7.1 4 Noroeste 6 Noroeste 0 981.6 -1.1 76
2019-12-15 01:00:00 7.2 0 Calma 6 Noroeste 0 982.4 -0.3 78
2019-12-15 00:00:00 7.6 2 Noroeste 10 Oeste 0 982.6 -0.2 80
2019-12-14 23:00:00 8.9 2 Nordeste 10 Oeste 0 982.7 0.2 72
2019-12-14 22:00:00 9.9 4 Oeste 10 Sudoeste 0 982.7 0.4 72
2019-12-14 21:00:00 10.4 3 Este 13 Sudoeste 0 982.8 0.7 70
2019-12-14 20:00:00 11.5 4 Norte 8 Sudoeste 0 982.5 0.9 68
2019-12-14 19:00:00 12.6 0 Calma 5 Noroeste 0 982.3 1.2 59
2019-12-14 18:00:00 14 5 Oeste 19 Sudoeste 0 982.1 1.4 52
2019-12-14 17:00:00 15.2 12 Sudoeste 21 Sudoeste 0 981.6 0.2 53
2019-12-14 16:00:00 16.8 12 Sudoeste 19 Sur 0 981.1 -0.9 46
2019-12-14 15:00:00 19.7 13 Oeste 23 Oeste 0 980.7 -2 37
2019-12-14 14:00:00 19.5 8 Oeste 23 Sudoeste 0 981.4 -1.9 38
2019-12-14 13:00:00 20.2 2 Norte 18 Oeste 0 982 -1.5 38
2019-12-14 12:00:00 17.1 4 Oeste 9 Oeste 0 982.7 0.3 43
2019-12-14 11:00:00 14.2 3 Este 10 Este 0 983.3 1.2 51
2019-12-14 10:00:00 11.4 4 Este 13 Este 0 983.5 1.4 54
2019-12-14 09:00:00 9 4 Este 13 Este 0 982.4 0.4 59
2019-12-14 08:00:00 9.2 7 Nordeste 12 Nordeste 0 982.1 0.5 57
2019-12-14 07:00:00 11.6 3 Sur 25 Noroeste 0 982.1 0 53
2019-12-14 06:00:00 12.5 19 Oeste 31 Sudoeste 0 982 -0.7 50
2019-12-14 05:00:00 12.6 17 Oeste 32 Noroeste 0 981.6 -1.1 50
2019-12-14 04:00:00 12.4 15 Noroeste 31 Noroeste 0 982.1 -0.5 50
2019-12-14 03:00:00 13.3 15 Oeste 46 Oeste 0 982.7 -0.1 47
2019-12-14 02:00:00 13.6 22 Oeste 60 Oeste 0 982.7 0.2 46
2019-12-14 01:00:00 14.1 26 Oeste 47 Noroeste 0 982.6 -0.2 47
2019-12-14 00:00:00 14.2 24 Oeste 39 Sudoeste 0 982.8 -0.8 47
2019-12-13 23:00:00 14.8 25 Oeste 59 Noroeste 0 982.5 -0.1 45
2019-12-13 22:00:00 15 27 Oeste 46 Oeste 0 982.8 -0.3 46
2019-12-13 21:00:00 15.1 19 Noroeste 66 Oeste 0 983.6 1.3 46
2019-12-13 20:00:00 15.5 38 Noroeste 63 Oeste 0 982.6 1.1 45
2019-12-13 19:00:00 15.6 25 Oeste 71 Noroeste 0 983.1 1.4 43
2019-12-13 18:00:00 15.9 31 Oeste 58 Oeste 0 982.3 1.2 44
2019-12-13 17:00:00 16.3 26 Oeste 50 Noroeste 0 981.5 1 43
2019-12-13 16:00:00 16.3 24 Oeste 57 Noroeste 0 981.7 1 44
2019-12-13 15:00:00 16.1 28 Oeste 64 Noroeste 0 981.1 -0.1 44
2019-12-13 14:00:00 16.4 40 Noroeste 74 Noroeste 0 980.5 -0.6 43
2019-12-13 13:00:00 15.6 39 Noroeste 85 Noroeste 0.1 980.7 0.2 47
2019-12-13 12:00:00 15.4 32 Oeste 69 Noroeste 0 981.2 1.5 47
2019-12-13 11:00:00 15.8 41 Oeste 66 Oeste 0 981.1 1.5 47
2019-12-13 10:00:00 15.7 28 Oeste 47 Noroeste 0 980.5 0.7 50
2019-12-13 09:00:00 15.4 28 Oeste 53 Oeste 0 979.7 -0.2 53
2019-12-13 08:00:00 14.6 26 Oeste 45 Oeste 0 979.6 -0.1 57
2019-12-13 07:00:00 14.7 25 Oeste 40 Oeste 0 979.8 -0.6 58
2019-12-13 06:00:00 14.5 12 Oeste 35 Oeste 0 979.9 -0.8 56
2019-12-13 05:00:00 14 2 Sudoeste 34 Sudoeste 0 979.7 -1.2 58
2019-12-13 04:00:00 14.3 19 Sudoeste 41 Sudoeste 0 980.4 -0.3 55
2019-12-13 03:00:00 14.4 23 Oeste 44 Oeste 0 980.7 -0.1 53
2019-12-13 02:00:00 13.7 17 Sudoeste 54 Sudoeste 0 980.9 -0.6 55
2019-12-13 01:00:00 13.2 12 Sudoeste 48 Noroeste 0 980.7 -0.6 53
2019-12-13 00:00:00 13.4 13 Sudoeste 45 Oeste 0 980.8 -0.4 49
2019-12-12 23:00:00 13.3 15 Sudoeste 33 Oeste 0 981.5 -0.2 48
2019-12-12 22:00:00 12.6 21 Oeste 48 Oeste 0 981.3 -1.5 48
2019-12-12 21:00:00 12.3 26 Oeste 42 Noroeste 0 981.2 -2.1 47
2019-12-12 20:00:00 12.4 26 Oeste 50 Noroeste 0 981.7 -2.4 44
2019-12-12 19:00:00 12.5 35 Noroeste 55 Noroeste 0 982.8 -1.1 43
2019-12-12 18:00:00 12.1 31 Oeste 51 Noroeste 0 983.3 -0.8 42
2019-12-12 17:00:00 12.3 19 Noroeste 39 Noroeste 0 984.1 -0.9 41
2019-12-12 16:00:00 12.8 20 Noroeste 57 Oeste 0 983.9 -1.7 39
2019-12-12 15:00:00 12.8 18 Noroeste 49 Noroeste 0 984.1 -3.1 40
2019-12-12 14:00:00 12.6 21 Oeste 50 Noroeste 0 985 -1.9 40
2019-12-12 13:00:00 11.9 21 Oeste 45 Noroeste 0 985.6 -2 44
2019-12-12 12:00:00 11.6 18 Noroeste 43 Noroeste 0 987.2 0.2 41
2019-12-12 11:00:00 11.2 22 Oeste 43 Oeste 0 986.9 0.2 43
2019-12-12 10:00:00 10.1 13 Oeste 22 Oeste 0 987.6 0.6 51
2019-12-12 09:00:00 8.6 12 Oeste 21 Oeste 0 987 0.2 58
2019-12-12 08:00:00 8.4 9 Oeste 32 Oeste 0 986.7 -0.3 58
2019-12-12 07:00:00 9.1 17 Oeste 48 Oeste 0 987 -0.3 55
2019-12-12 06:00:00 8.8 5 Sudoeste 19 Oeste 0 986.8 -1.2 54
2019-12-12 05:00:00 8.1 6 Oeste 12 Oeste 0 987 -1 59
2019-12-12 04:00:00 8.5 0 Calma 7 Sudoeste 0 987.3 -1.7 55
2019-12-12 03:00:00 9.6 0 Calma 15 Noroeste 0 988 -0.7 52
2019-12-12 02:00:00 10.7 10 Noroeste 36 Noroeste 0 988 -0.1 50
2019-12-12 01:00:00 10.7 8 Noroeste 28 Oeste 0 989 1.1 50
2019-12-12 00:00:00 11.2 11 Noroeste 40 Noroeste 0 988.7 1.4 50
2019-12-11 23:00:00 11.8 24 Noroeste 48 Oeste 0 988.1 1.7 50
2019-12-11 22:00:00 11.9 14 Noroeste 39 Noroeste 0 987.9 2.2 49
2019-12-11 21:00:00 12.4 28 Noroeste 51 Oeste 0 987.3 2.9 44
2019-12-11 20:00:00 13.3 25 Noroeste 40 Norte 0 986.4 1.5 38
2019-12-11 19:00:00 15 20 Noroeste 44 Noroeste 0 985.7 1.8 37
2019-12-11 18:00:00 15.3 22 Noroeste 40 Noroeste 0 984.4 0.4 31
2019-12-11 17:00:00 16.6 24 Noroeste 46 Noroeste 0 984.9 0.8 18
2019-12-11 16:00:00 18.5 27 Oeste 53 Noroeste 0 983.9 -0.6 --
2019-12-11 15:00:00 19.9 21 Noroeste 51 Noroeste 0 984 -1.9 12
2019-12-11 14:00:00 19.9 27 Oeste 53 Noroeste 0 984.1 -1.6 12
2019-12-11 13:00:00 20.1 26 Oeste 47 Noroeste 0 984.5 -1.3 15
2019-12-11 12:00:00 18.7 16 Oeste 28 Oeste 0 985.9 -0.4 18
2019-12-11 11:00:00 16.1 7 Oeste 14 Este 0 985.7 -0.3 33
2019-12-11 10:00:00 8.5 6 Este 12 Este 0 985.8 -0.2 51
2019-12-11 09:00:00 5 5 Este 10 Sudeste 0 986.3 0.4 59
2019-12-11 08:00:00 4.5 0 Calma 11 Nordeste 0 986 -0.1 62
2019-12-11 07:00:00 4.3 0 Calma 6 Nordeste 0 986 -0.4 61
2019-12-11 06:00:00 4.5 2 Este 9 Nordeste 0 985.9 -0.8 61
2019-12-11 05:00:00 4.5 3 Este 9 Este 0 986.1 -1 63
2019-12-11 04:00:00 4.9 2 Este 7 Norte 0 986.4 -1.3 62
2019-12-11 03:00:00 5.6 0 Calma 8 Nordeste 0 986.7 -1.5 62
2019-12-11 02:00:00 5.5 3 Nordeste 7 Nordeste 0 987.1 -1.3 65
2019-12-11 01:00:00 5.6 5 Este 8 Nordeste 0 987.7 -0.9 69
2019-12-11 00:00:00 8.1 0 Calma 5 Oeste 0 988.2 -0.7 56
2019-12-10 23:00:00 8.3 3 Noroeste 5 Sudoeste 0 988.4 -0.7 60
2019-12-10 22:00:00 8.8 0 Calma 7 Sudoeste 0 988.6 -0.2 62
2019-12-10 21:00:00 9.3 0 Calma 7 Oeste 0 988.9 0.5 65
2019-12-10 20:00:00 11 2 Noroeste 7 Noroeste 0 989.1 1 56
2019-12-10 19:00:00 12.9 3 Norte 9 Nordeste 0 988.8 0.8 53
2019-12-10 18:00:00 15.3 5 Nordeste 9 Sur 0 988.4 0.4 42
2019-12-10 17:00:00 19.9 4 Sudoeste 13 Sur 0 988.1 -0.8 24
2019-12-10 16:00:00 21.2 5 Sur 12 Sur 0 988 -1.6 15
2019-12-10 15:00:00 23.9 2 Este 7 Oeste 0 988 -2.4 13
2019-12-10 14:00:00 22.9 3 Sudoeste 8 Sudoeste 0 988.9 -1.6 18
2019-12-10 13:00:00 21.1 2 Noroeste 7 Norte 0 989.6 -1.4 21
2019-12-10 12:00:00 17.6 4 Este 9 Sudeste 0 990.4 -0.3 31
2019-12-10 11:00:00 16.9 0 Calma 11 Sudeste 0 990.5 0.1 29
2019-12-10 10:00:00 11.1 5 Sur 10 Sur 0 991 0.3 40
2019-12-10 09:00:00 9.6 2 Sur 7 Sur 0 990.7 -0.1 43
2019-12-10 08:00:00 7.7 2 Sudoeste 5 Sudoeste 0 990.4 -0.4 46
2019-12-10 07:00:00 5.5 2 Oeste 7 Norte 0 990.7 -0.5 54
2019-12-10 06:00:00 6.1 0 Calma 6 Sudeste 0 990.8 -0.8 59
2019-12-10 05:00:00 6.8 0 Calma 6 Sur 0 990.8 -1 57
2019-12-10 04:00:00 7.3 0 Calma 5 Sudoeste 0 991.2 -0.9 58
2019-12-10 03:00:00 8.4 0 Calma 6 Este 0 991.6 -0.4 55
2019-12-10 02:00:00 8.7 2 Este 6 Norte 0 991.8 -0.2 55
2019-12-10 01:00:00 9.3 4 Norte 11 Este 0 992.1 0.2 57
2019-12-10 00:00:00 11.7 4 Sudeste 9 Sur 0 992 0.4 47
2019-12-09 23:00:00 10.5 5 Oeste 13 Oeste 0 992 1.1 55
2019-12-09 22:00:00 12.8 3 Sur 9 Sudeste 0 991.9 1.2 47
2019-12-09 21:00:00 12.8 3 Sur 13 Sudeste 0 991.6 1.2 50
2019-12-09 20:00:00 13.9 3 Sur 8 Sur 0 990.9 0.7 50
2019-12-09 19:00:00 15.1 3 Sudeste 9 Noroeste 0 990.7 0.9 47
2019-12-09 18:00:00 16.5 8 Noroeste 12 Noroeste 0 990.4 0.9 49
2019-12-09 17:00:00 18 6 Sudoeste 12 Sur 0 990.2 0.3 42
2019-12-09 16:00:00 19.8 8 Sur 16 Sur 0 989.8 -1 33
2019-12-09 15:00:00 22.2 10 Sudoeste 19 Oeste 0 989.5 -1.8 24
2019-12-09 14:00:00 22.1 10 Oeste 17 Oeste 0 989.9 -1.9 25
2019-12-09 13:00:00 20.3 12 Oeste 23 Oeste 0 990.8 -0.7 31
2019-12-09 12:00:00 18.6 11 Oeste 23 Oeste 0 991.3 -0.2 34
2019-12-09 11:00:00 16.4 6 Oeste 10 Oeste 0 991.8 0.8 44
2019-12-09 10:00:00 14.9 7 Oeste 15 Oeste 0 991.5 1.9 52
2019-12-09 09:00:00 12.8 5 Sudoeste 14 Oeste 0 991.5 2.9 60
2019-12-09 08:00:00 12.3 0 Calma 22 Noroeste 0 991 2.1 60
2019-12-09 07:00:00 13.5 13 Noroeste 32 Oeste 0 989.6 0.4 53
2019-12-09 06:00:00 13.8 20 Noroeste 38 Oeste 0 988.6 -0.7 51
2019-12-09 05:00:00 13.8 16 Oeste 29 Noroeste 0 988.9 -0.5 48
2019-12-09 04:00:00 13.3 4 Sudoeste 22 Noroeste 0 989.2 -0.4 50
2019-12-09 03:00:00 14 10 Oeste 22 Oeste 0 989.3 -0.2 45
2019-12-09 02:00:00 14.5 5 Sudoeste 18 Sudoeste 0 989.4 0.4 43
2019-12-09 01:00:00 14.3 4 Noroeste 14 Noroeste 0 989.6 0.5 40
2019-12-09 00:00:00 13.5 8 Noroeste 14 Noroeste 0 989.5 0.4 37
2019-12-08 23:00:00 13.7 9 Oeste 31 Oeste 0 989 0.3 34
2019-12-08 22:00:00 14.4 17 Oeste 33 Noroeste 0 989.1 1.1 31
2019-12-08 21:00:00 13.9 4 Sudoeste 20 Sudoeste 0 989.1 1.4 32
2019-12-08 20:00:00 14.9 4 Sur 17 Oeste 0 988.7 1.8 30
2019-12-08 19:00:00 15 5 Oeste 14 Noroeste 0 988 1.3 30
2019-12-08 18:00:00 16 6 Oeste 17 Sudoeste 0 987.7 0.9 27
2019-12-08 17:00:00 18.2 11 Oeste 24 Oeste 0 986.9 -0.9 26
2019-12-08 16:00:00 18.8 17 Oeste 30 Oeste 0 986.7 -2 26
2019-12-08 15:00:00 19.2 14 Oeste 24 Oeste 0 986.8 -2.8 25
2019-12-08 14:00:00 19 11 Oeste 18 Sudoeste 0 987.8 -2.3 26
2019-12-08 13:00:00 18 10 Sudoeste 18 Sudoeste 0 988.7 -1.2 30
2019-12-08 12:00:00 16.6 4 Sudoeste 9 Sur 0 989.6 0.7 37
2019-12-08 11:00:00 13.7 0 Calma 4 Sur 0 990.1 1.5 48
2019-12-08 10:00:00 9.9 0 Calma 3 Nordeste 0 989.9 1.7 61
2019-12-08 09:00:00 6.7 0 Calma 5 Sudoeste 0 988.9 0.8 82
2019-12-08 08:00:00 5.4 0 Calma 5 Este 0 988.6 0.6 84
2019-12-08 07:00:00 6 2 Noroeste 5 Noroeste 0 988.2 -0.2 84
2019-12-08 06:00:00 5.3 0 Calma 4 Este 0 988.1 -0.7 84
2019-12-08 05:00:00 5.6 0 Calma 4 Sudoeste 0 988 -0.8 84
2019-12-08 04:00:00 6.1 0 Calma 5 Nordeste 0 988.4 -0.7 84
2019-12-08 03:00:00 6.1 2 Este 5 Norte 0 988.8 -0.7 84
2019-12-08 02:00:00 6.7 2 Noroeste 4 Noroeste 0 988.8 -0.7 84
2019-12-08 01:00:00 7.3 0 Calma 4 Sudoeste 0 989.1 -0.2 84
2019-12-08 00:00:00 7.5 0 Calma 6 Este 0 989.5 0.5 84
2019-12-07 23:00:00 8.3 0 Calma 4 Este 0 989.5 0.9 83
2019-12-07 22:00:00 9 0 Calma 4 Este 0 989.3 1.5 82
2019-12-07 21:00:00 9.2 2 Noroeste 7 Oeste 0 989 1.4 83
2019-12-07 20:00:00 10.2 3 Noroeste 7 Sudoeste 0 988.6 1.4 81
2019-12-07 19:00:00 11.9 2 Oeste 6 Sudoeste 0 987.8 1 77
2019-12-07 18:00:00 12.6 4 Sudoeste 9 Sudoeste 0 987.6 1 71
2019-12-07 17:00:00 15.2 5 Sudoeste 10 Sur 0 987.2 0 51
2019-12-07 16:00:00 16.3 6 Sudeste 13 Este 0 986.8 -1.2 40
2019-12-07 15:00:00 17.7 3 Este 10 Sudeste 0 986.6 -2.2 37
2019-12-07 14:00:00 15.9 2 Este 8 Nordeste 0 987.2 -1.8 44
2019-12-07 13:00:00 15.4 0 Calma 6 Noroeste 0 988 -0.4 48
2019-12-07 12:00:00 13.4 0 Calma 5 Sudoeste 0 988.8 1.2 57
2019-12-07 11:00:00 11.7 0 Calma 4 Oeste 0 989 1.9 64
2019-12-07 10:00:00 8.8 0 Calma 6 Noroeste 0 988.4 1.6 79
2019-12-07 09:00:00 7 4 Noroeste 6 Noroeste 0 987.6 1.2 84
2019-12-07 08:00:00 6.7 3 Este 6 Nordeste 0 987.1 0.5 84
2019-12-07 07:00:00 7.7 0 Calma 5 Sudoeste 0 986.8 -0.2 81
2019-12-07 06:00:00 8 2 Noroeste 6 Noroeste 0 986.4 -0.8 80
2019-12-07 05:00:00 8.5 4 Noroeste 7 Noroeste 0 986.6 -0.7 80
2019-12-07 04:00:00 8.1 3 Noroeste 6 Noroeste 0 987 -0.6 81
2019-12-07 03:00:00 8.5 0 Calma 7 Noroeste 0 987.2 -0.5 78
2019-12-07 02:00:00 9.2 5 Norte 8 Norte 0 987.3 -0.4 75
2019-12-07 01:00:00 9.2 4 Noroeste 10 Noroeste 0 987.6 -0.2 78
2019-12-07 00:00:00 9.8 5 Noroeste 8 Noroeste 0 987.7 0.1 80
2019-12-06 23:00:00 10.1 0 Calma 16 Nordeste 0 987.7 0.3 81
2019-12-06 22:00:00 10.9 3 Este 8 Este 0 987.8 1.1 80
2019-12-06 21:00:00 11.6 3 Este 15 Sudeste 0 987.6 1.6 74
2019-12-06 20:00:00 12.2 4 Sudeste 9 Este 0 987.4 1.8 71
2019-12-06 19:00:00 12.4 3 Este 15 Este 0 986.7 1.4 68
2019-12-06 18:00:00 12.9 6 Este 21 Este 0 986 0.7 63
2019-12-06 17:00:00 13.9 7 Este 25 Este 0 985.6 -0.6 58
2019-12-06 16:00:00 14.9 7 Este 21 Sudeste 0 985.3 -1.6 54
2019-12-06 15:00:00 15.2 8 Este 25 Sudeste 0 985.3 -2 51
2019-12-06 14:00:00 14.2 9 Este 26 Este 0 986.2 -1.6 56
2019-12-06 13:00:00 13.5 11 Este 29 Nordeste 0 986.9 -0.4 58
2019-12-06 12:00:00 13.4 9 Este 22 Sudeste 0 987.3 0.7 61
2019-12-06 11:00:00 12 4 Este 9 Este 0 987.8 1.7 72
2019-12-06 10:00:00 11.2 2 Sur 10 Este 0 987.3 2 77
2019-12-06 09:00:00 10.7 0 Calma 6 Este 0 986.6 1.7 78
2019-12-06 08:00:00 9.7 0 Calma 8 Nordeste 0 986.1 1.3 78
2019-12-06 07:00:00 9.4 2 Noroeste 10 Noroeste 0 985.3 0.3 80
2019-12-06 06:00:00 9 5 Noroeste 8 Noroeste 0 984.9 -0.1 80
2019-12-06 05:00:00 9.1 4 Noroeste 9 Noroeste 0 984.8 0 78
2019-12-06 04:00:00 9.9 4 Noroeste 9 Noroeste 0 985 0.2 77
2019-12-06 03:00:00 10.4 3 Noroeste 7 Norte 0 985 -0.2 77
2019-12-06 02:00:00 11 2 Nordeste 14 Este 0 984.8 -0.1 73
2019-12-06 01:00:00 11.3 5 Este 18 Este 0 984.8 0.2 72
2019-12-06 00:00:00 10.8 2 Este 21 Este 0 985.2 0.9 79
2019-12-05 23:00:00 11.4 8 Este 22 Nordeste 0 984.9 1.2 77
2019-12-05 22:00:00 11.3 5 Este 13 Este 0 984.6 1.8 79
2019-12-05 21:00:00 11.2 3 Sudeste 17 Sudeste 0 984.3 2.1 75
2019-12-05 20:00:00 11.7 6 Este 18 Este 0 983.7 2.2 74
2019-12-05 19:00:00 12.3 3 Este 9 Este 0 982.8 2 69
2019-12-05 18:00:00 12.7 3 Este 14 Sudeste 0 982.2 1.5 64
2019-12-05 17:00:00 13.4 5 Este 14 Nordeste 0 981.5 0.5 53
2019-12-05 16:00:00 14.1 5 Este 15 Este 0 980.8 -0.6 50
2019-12-05 15:00:00 14.3 6 Este 15 Sudeste 0 980.7 -1 46
2019-12-05 14:00:00 13.7 8 Sudeste 16 Este 0 981 -1.2 46
2019-12-05 13:00:00 14.2 2 Este 6 Este 0 981.4 1.4 48
2019-12-05 12:00:00 12.3 3 Nordeste 5 Norte 0 981.7 2.7 56
2019-12-05 11:00:00 10 4 Noroeste 9 Este 0 982.2 4.1 68
2019-12-05 10:00:00 7.6 0 Calma 5 Noroeste 0 980 2.9 81
2019-12-05 09:00:00 5.4 3 Oeste 6 Sudeste 0 979 2.4 84
2019-12-05 08:00:00 5.7 0 Calma 5 Oeste 0 978.1 1.9 84
2019-12-05 07:00:00 5.6 2 Este 6 Noroeste 0 977.1 1.1 83
2019-12-05 06:00:00 5.8 2 Oeste 5 Nordeste 0 976.6 0.9 83
2019-12-05 05:00:00 6.1 0 Calma 5 Nordeste 0 976.2 0.6 83
2019-12-05 04:00:00 6.8 2 Nordeste 6 Nordeste 0 976 0.5 83
2019-12-05 03:00:00 7.4 3 Este 5 Nordeste 0 975.7 0.7 81
2019-12-05 02:00:00 8.2 3 Este 7 Nordeste 0 975.6 0.8 80
2019-12-05 01:00:00 8.1 4 Este 8 Este 0 975.5 1 81
2019-12-05 00:00:00 7.8 4 Este 8 Nordeste 0 975 0.9 80
2019-12-04 23:00:00 9.6 0 Calma 9 Oeste 0 974.8 1.4 70
2019-12-04 22:00:00 9.4 0 Calma 13 Noroeste 0 974.5 1.4 74
2019-12-04 21:00:00 11 4 Norte 19 Oeste 0 974.1 1.5 57
2019-12-04 20:00:00 10.9 9 Sudoeste 25 Sudoeste 0 973.4 1.7 74
2019-12-04 19:00:00 12.1 10 Sudoeste 24 Sudoeste 0 973.1 1.7 64
2019-12-04 18:00:00 13.6 5 Oeste 21 Noroeste 0 972.6 1.9 47
2019-12-04 17:00:00 16.2 8 Noroeste 26 Norte 0 971.7 1 37
2019-12-04 16:00:00 14.6 14 Noroeste 28 Noroeste 0 971.4 -0.1 39
2019-12-04 15:00:00 15.6 9 Noroeste 27 Noroeste 0 970.7 -1.5 40
2019-12-04 14:00:00 15.5 12 Noroeste 25 Noroeste 0 970.7 -2 42
2019-12-04 13:00:00 14.3 10 Noroeste 32 Noroeste 0 971.5 -1.2 45
2019-12-04 12:00:00 13.4 10 Noroeste 31 Noroeste 0 972.2 0.2 48
2019-12-04 11:00:00 11.2 6 Sudoeste 13 Noroeste 0 972.7 1.2 57
2019-12-04 10:00:00 10.6 8 Oeste 24 Noroeste 0 972.7 1.5 56
2019-12-04 09:00:00 10.5 13 Oeste 27 Oeste 0 972 0.8 56
2019-12-04 08:00:00 10.9 5 Oeste 15 Oeste 0 971.5 -0.4 55
2019-12-04 07:00:00 9.8 4 Oeste 20 Sudoeste 0 971.2 -1.3 60
2019-12-04 06:00:00 9.3 8 Sudoeste 19 Oeste 0 971.2 -2.1 63
2019-12-04 05:00:00 9.9 7 Oeste 21 Oeste 0 971.9 -2 61
2019-12-04 04:00:00 9.6 14 Oeste 21 Oeste 0 972.5 -1.9 62
2019-12-04 03:00:00 9.5 6 Oeste 24 Noroeste 0 973.3 -1.9 69
2019-12-04 02:00:00 9.6 6 Oeste 14 Noroeste 0 973.9 -1.9 67
2019-12-04 01:00:00 9 6 Oeste 17 Noroeste 0 974.4 -1.5 73
2019-12-04 00:00:00 9 11 Noroeste 18 Norte 0.2 975.2 -0.6 73
2019-12-03 23:00:00 8.7 7 Oeste 25 Noroeste 0.9 975.8 0.4 74
2019-12-03 22:00:00 8.5 6 Noroeste 15 Norte 1.9 975.9 0.5 75
2019-12-03 21:00:00 9 5 Norte 28 Norte 0.7 975.8 0.7 70
2019-12-03 20:00:00 9.1 4 Nordeste 21 Nordeste 0.2 975.4 0.4 72
2019-12-03 19:00:00 9.4 9 Este 27 Nordeste 0.6 975.4 0.8 75
2019-12-03 18:00:00 9.2 6 Este 23 Este 0.9 975.1 0.6 84
2019-12-03 17:00:00 9.6 13 Este 31 Este 0 975 -0.2 81
2019-12-03 16:00:00 9.4 8 Este 36 Este 0 974.6 -1.5 83
2019-12-03 15:00:00 9.7 13 Este 43 Este 0.6 974.5 -2.1 81
2019-12-03 14:00:00 9.4 15 Este 41 Nordeste 0.5 975.2 -1.9 81
2019-12-03 13:00:00 10 15 Este 47 Este 0.4 976.1 -0.7 76
2019-12-03 12:00:00 9.6 18 Nordeste 48 Este 0.6 976.6 0 79
2019-12-03 11:00:00 10 16 Nordeste 41 Nordeste 0.2 977.1 0.9 76
2019-12-03 10:00:00 10.3 14 Este 47 Nordeste 0 976.8 0.7 77
2019-12-03 09:00:00 10.1 11 Este 48 Nordeste 0.2 976.6 0.5 79
2019-12-03 08:00:00 9.9 13 Nordeste 41 Nordeste 0.5 976.2 0.2 77
2019-12-03 07:00:00 9.7 7 Nordeste 42 Nordeste 2.6 976.1 -0.6 80
2019-12-03 06:00:00 9.9 12 Nordeste 37 Nordeste 3.2 976.1 -0.9 78
2019-12-03 05:00:00 9.9 9 Este 33 Este 0.9 976 -1.4 78
2019-12-03 04:00:00 10.3 10 Este 40 Este 0 976.7 -1.6 79
2019-12-03 03:00:00 10.5 14 Este 41 Nordeste 0.3 977 -1 81
2019-12-03 02:00:00 10.8 12 Este 36 Este 0.1 977.4 -0.9 81
2019-12-03 01:00:00 10.7 11 Este 38 Sudeste 0.2 978.3 0 83
2019-12-03 00:00:00 10.7 9 Este 27 Sudeste 0.6 978 -0.2 84
2019-12-02 23:00:00 10.6 9 Este 33 Nordeste 1.4 978.3 0.2 84
2019-12-02 22:00:00 11.1 10 Nordeste 26 Este 0.1 978.3 0.9 84
2019-12-02 21:00:00 10.9 9 Este 22 Nordeste 0.3 978.2 1.2 84
2019-12-02 20:00:00 10.9 5 Este 24 Nordeste 1.6 978.1 1.7 84
2019-12-02 19:00:00 11.2 10 Nordeste 27 Nordeste 0 977.4 0.6 81
2019-12-02 18:00:00 11.3 10 Nordeste 29 Nordeste 0 977 0.5 81
2019-12-02 17:00:00 11.5 6 Nordeste 25 Nordeste 0 976.4 -0.3 82
2019-12-02 16:00:00 11.6 6 Este 23 Este 0.1 976.8 -0.3 82
2019-12-02 15:00:00 11.4 7 Nordeste 17 Nordeste 0.9 976.5 -0.9 84
2019-12-02 14:00:00 11.7 7 Este 20 Este 0.6 976.7 -0.5 84
2019-12-02 13:00:00 12.7 7 Este 21 Este 0 977.1 0.5 72
2019-12-02 12:00:00 12.7 7 Este 23 Este 0 977.4 1.5 72
2019-12-02 11:00:00 11.9 4 Sudeste 23 Nordeste 0 977.2 1.6 78
2019-12-02 10:00:00 11.5 8 Nordeste 23 Nordeste 0 976.6 1.9 77
2019-12-02 09:00:00 11.1 4 Este 14 Este 0 975.9 1.3 79
2019-12-02 08:00:00 10.9 4 Este 12 Este 0 975.6 1 81
2019-12-02 07:00:00 10.5 5 Este 13 Este 0 974.7 0.1 82
2019-12-02 06:00:00 11 3 Este 14 Sudeste 0 974.6 -0.4 82
2019-12-02 05:00:00 11.2 5 Este 16 Este 0 974.6 -0.3 82
2019-12-02 04:00:00 11.5 4 Este 8 Este 0 974.6 -0.7 81
2019-12-02 03:00:00 11.8 3 Este 14 Este 0 975 -0.1 81
2019-12-02 02:00:00 12.2 6 Este 14 Este 0 974.9 -0.5 79
2019-12-02 01:00:00 12.3 4 Este 15 Este 0 975.3 0.3 75
2019-12-02 00:00:00 11.7 6 Este 12 Este 0 975.1 -0.1 78
2019-12-01 23:00:00 10.2 2 Sudoeste 9 Norte 0 975.4 0.5 68
2019-12-01 22:00:00 11 2 Sur 7 Noroeste 0 975 0.6 72
2019-12-01 21:00:00 11.5 5 Noroeste 7 Noroeste 0 975.2 0.7 73
2019-12-01 20:00:00 12.4 0 Calma 8 Nordeste 0 974.9 0.5 69
2019-12-01 19:00:00 13.7 4 Nordeste 14 Este 0 974.4 0 61
2019-12-01 18:00:00 15.2 6 Este 13 Este 0 974.5 0 52
2019-12-01 17:00:00 17.9 5 Sudoeste 14 Sudoeste 0 974.4 -0.7 37
2019-12-01 16:00:00 18.9 9 Sur 19 Sudoeste 0 974.4 -1.5 37
2019-12-01 15:00:00 18.5 10 Sur 19 Sur 0 974.5 -2.4 38
2019-12-01 14:00:00 18.7 8 Oeste 19 Sudoeste 0 975.1 -2.5 28
2019-12-01 13:00:00 19.8 7 Oeste 19 Sudoeste 0 975.9 -1.7 30
2019-12-01 12:00:00 20 3 Oeste 12 Sudoeste 0 976.9 -1.5 36
2019-12-01 11:00:00 17.1 2 Sur 7 Este 0 977.6 -0.1 45
2019-12-01 10:00:00 12.5 0 Calma 7 Nordeste 0 977.6 0.1 70
2019-12-01 09:00:00 9.6 2 Sudeste 9 Nordeste 0 978.4 0.8 72
2019-12-01 08:00:00 7.7 3 Nordeste 17 Noroeste 0 977.7 -0.6 79
2019-12-01 07:00:00 8.2 2 Este 10 Este 0 977.5 -1.1 77
2019-12-01 06:00:00 8.4 4 Este 8 Este 0 977.6 -1.6 74
2019-12-01 05:00:00 10 2 Este 7 Nordeste 0 978.3 -1 67
2019-12-01 04:00:00 12.5 3 Oeste 10 Oeste 0 978.6 -1.4 57
2019-12-01 03:00:00 12.8 4 Sur 22 Noroeste 0 979.2 -0.8 56
2019-12-01 02:00:00 13.3 9 Sudoeste 15 Oeste 0 979.3 -1.1 53
2019-12-01 01:00:00 12.8 3 Este 12 Oeste 0 980 -0.9 57
2019-12-01 00:00:00 12.3 4 Sur 9 Sur 0 980 -1.2 64
2019-11-30 23:00:00 10.2 0 Calma 4 Este 0 980.4 -0.9 81
2019-11-30 22:00:00 11.2 0 Calma 7 Sur 0 980.9 -0.7 81
2019-11-30 21:00:00 11.4 0 Calma 6 Noroeste 0 981.2 -0.5 80
2019-11-30 20:00:00 12.8 0 Calma 6 Nordeste 0 981.3 -0.7 79
2019-11-30 19:00:00 13.7 4 Nordeste 6 Nordeste 0 981.6 -0.7 72
2019-11-30 18:00:00 14.7 5 Sudoeste 13 Sur 0 981.7 -0.7 66
2019-11-30 17:00:00 17 8 Sur 15 Sudoeste 0 982 -1.6 51
2019-11-30 16:00:00 18.9 10 Sudoeste 15 Sudoeste 0 982.3 -2.6 45
2019-11-30 15:00:00 19.9 7 Oeste 18 Sudoeste 0 982.4 -3.4 37
2019-11-30 14:00:00 19.7 6 Sur 15 Sudoeste 0 983.6 -3.1 37
2019-11-30 13:00:00 19.6 5 Sur 10 Sur 0 984.9 -1.8 36
2019-11-30 12:00:00 20.7 0 Calma 6 Sudoeste 0 985.8 -0.9 36
2019-11-30 11:00:00 16.4 3 Sur 6 Sur 0 986.7 0.3 49
2019-11-30 10:00:00 15.5 0 Calma 4 Sudeste 0 986.7 0.6 52
2019-11-30 09:00:00 10.6 0 Calma 5 Este 0 986.7 0.9 75
2019-11-30 08:00:00 7.8 2 Nordeste 4 Este 0 986.4 0.4 82
2019-11-30 07:00:00 8.1 3 Este 4 Este 0 986.1 0 81
2019-11-30 06:00:00 8.7 0 Calma -- -- 0 985.8 -0.5 80
2019-11-30 05:00:00 8.8 0 Calma 3 Este 0 986 -0.2 81
2019-11-30 04:00:00 8.8 3 Nordeste 6 Nordeste 0 986.1 -0.3 81
2019-11-30 03:00:00 8.8 3 Este 5 Nordeste 0 986.3 -0.3 78
2019-11-30 02:00:00 9.6 0 Calma -- -- 0 986.2 -0.4 78
2019-11-30 01:00:00 10.2 2 Nordeste 4 Nordeste 0 986.4 -0.2 77
2019-11-30 00:00:00 10.7 0 Calma 3 Oeste 0 986.6 0 78
2019-11-29 23:00:00 11.1 0 Calma 5 Sudeste 0 986.6 0.4 76
2019-11-29 22:00:00 11.7 0 Calma 4 Este 0 986.6 0.6 75
2019-11-29 21:00:00 12.8 2 Nordeste 6 Noroeste 0 986.6 1.2 67
2019-11-29 20:00:00 13.3 3 Noroeste 5 Noroeste 0 986.2 1.6 62
2019-11-29 19:00:00 14.8 3 Oeste 12 Sudoeste 0 986 1.8 56
2019-11-29 18:00:00 16.6 3 Sudoeste 10 Oeste 0 985.4 1.5 46
2019-11-29 17:00:00 19.1 5 Sudoeste 12 Sur 0 984.6 0.2 39
2019-11-29 16:00:00 19.7 9 Sudoeste 15 Sudoeste 0 984.2 -0.5 37
2019-11-29 15:00:00 19.8 9 Sur 15 Sudoeste 0 983.9 -1.5 37
2019-11-29 14:00:00 20.6 6 Sur 16 Oeste 0 984.4 -1.3 30
2019-11-29 13:00:00 21.4 2 Sudoeste 11 Oeste 0 984.7 -0.9 30
2019-11-29 12:00:00 20.7 0 Calma 6 Nordeste 0 985.4 0.2 33
2019-11-29 11:00:00 17.1 2 Este 6 Nordeste 0 985.7 1.3 42
2019-11-29 10:00:00 13.6 0 Calma 10 Nordeste 0 985.6 1.7 49
2019-11-29 09:00:00 10.6 0 Calma 6 Nordeste 0 985.2 1.5 61
2019-11-29 08:00:00 6.5 3 Nordeste 10 Nordeste 0 984.4 0.9 75
2019-11-29 07:00:00 6.9 4 Nordeste 9 Nordeste 0 983.9 0.1 74
2019-11-29 06:00:00 7.2 4 Este 8 Este 0 983.7 -0.2 73
2019-11-29 05:00:00 8.3 3 Nordeste 9 Nordeste 0 983.5 -0.1 67
2019-11-29 04:00:00 9.1 4 Este 8 Oeste 0 983.8 -0.2 66
2019-11-29 03:00:00 11.8 9 Oeste 21 Oeste 0 983.9 0 59
2019-11-29 02:00:00 11.3 0 Calma 13 Oeste 0 983.6 0 60
2019-11-29 01:00:00 11.4 3 Noroeste 11 Oeste 0 984 0.7 62
2019-11-29 00:00:00 12.5 3 Sur 9 Sudoeste 0 983.9 0.8 59
2019-11-28 23:00:00 12.6 6 Sudoeste 13 Oeste 0 983.6 1.4 61
2019-11-28 22:00:00 12.8 2 Sur 12 Sudoeste 0 983.3 1.1 64
2019-11-28 21:00:00 11.6 0 Calma 9 Noroeste 0 983.1 1.4 72
2019-11-28 20:00:00 13.1 0 Calma 7 Noroeste 0 982.2 0.8 64
2019-11-28 19:00:00 14 2 Este 10 Nordeste 0 982.2 1.2 60
2019-11-28 18:00:00 15.7 2 Oeste 9 Oeste 0 981.7 1 50
2019-11-28 17:00:00 17.1 5 Sudoeste 18 Sur 0 981.4 0.3 46
2019-11-28 16:00:00 17.6 12 Sudoeste 20 Sudoeste 0 981 -1.1 48
2019-11-28 15:00:00 20.6 11 Sudoeste 21 Sudoeste 0 980.7 -2.2 36
2019-11-28 14:00:00 22 5 Oeste 17 Oeste 0 981.1 -2.3 29
2019-11-28 13:00:00 20.3 9 Oeste 19 Sudoeste 0 982.1 -1.2 33
2019-11-28 12:00:00 19.5 3 Noroeste 19 Oeste 0 982.9 -0.1 37
2019-11-28 11:00:00 16.1 14 Oeste 24 Oeste 0 983.4 0.9 43
2019-11-28 10:00:00 14.9 2 Sudeste 10 Este 0 983.3 1.8 47
2019-11-28 09:00:00 12.2 3 Sudeste 10 Este 0 983 2.2 56
2019-11-28 08:00:00 9.9 5 Nordeste 20 Noroeste 0 982.5 1.3 60
2019-11-28 07:00:00 11.9 9 Noroeste 15 Noroeste 0 981.5 0.4 52
2019-11-28 06:00:00 12.8 15 Oeste 24 Noroeste 0 980.8 -0.4 49
2019-11-28 05:00:00 12.2 5 Oeste 20 Noroeste 0 981.2 0.2 50
2019-11-28 04:00:00 13.2 13 Oeste 22 Sudoeste 0 981.1 0.1 47
2019-11-28 03:00:00 13.2 0 Calma 13 Norte 0 981.2 0.4 47
2019-11-28 02:00:00 13.6 3 Oeste 10 Noroeste 0 981 0.1 45
2019-11-28 01:00:00 13.6 4 Nordeste 16 Norte 0 981 0.9 45
2019-11-28 00:00:00 13.4 7 Nordeste 20 Norte 0 980.8 1.2 46
2019-11-27 23:00:00 14.9 13 Noroeste 35 Noroeste 0 980.9 2.1 40
2019-11-27 22:00:00 14.7 17 Oeste 33 Noroeste 0 980.1 1.8 41
2019-11-27 21:00:00 15.2 19 Oeste 38 Oeste 0 979.6 1.8 41
2019-11-27 20:00:00 15.8 25 Oeste 41 Noroeste 0 978.8 1.8 41
2019-11-27 19:00:00 16.5 22 Oeste 44 Noroeste 0 978.3 1.9 37
2019-11-27 18:00:00 17.4 25 Noroeste 47 Oeste 0 977.8 1.4 34
2019-11-27 17:00:00 19.6 14 Noroeste 35 Norte 0 977 0.1 30
2019-11-27 16:00:00 20.5 15 Noroeste 34 Noroeste 0 976.4 -1.1 29
2019-11-27 15:00:00 21.3 15 Noroeste 35 Norte 0 976.4 -1.6 27
2019-11-27 14:00:00 21.3 17 Noroeste 46 Noroeste 0 976.9 -1.2 27
2019-11-27 06:00:00 17.6 12 Noroeste 22 Noroeste 0 976.4 -0.4 47
2019-11-27 05:00:00 16.9 0 Calma 13 Sudoeste 0 976.3 -0.5 50
2019-11-27 04:00:00 16.9 7 Noroeste 32 Oeste 0 976.6 -0.2 48
2019-11-27 03:00:00 17.5 17 Noroeste 36 Noroeste 0 976.8 -0.6 45
2019-11-27 02:00:00 15.5 7 Noroeste 24 Oeste 0 976.8 -0.6 44
2019-11-27 01:00:00 16 12 Noroeste 26 Noroeste 0 976.8 -0.5 46
2019-11-27 00:00:00 15.4 7 Oeste 20 Oeste 0 977.4 -0.5 50
2019-11-26 23:00:00 16.4 10 Oeste 30 Oeste 0 977.4 -0.4 47
2019-11-26 22:00:00 17.5 21 Oeste 36 Oeste 0 977.3 -0.6 45
2019-11-26 21:00:00 13.5 0 Calma 8 Noroeste 0 977.9 0.3 81
2019-11-26 20:00:00 14.1 2 Nordeste 8 Oeste 0 977.8 0.7 79
2019-11-26 19:00:00 15.1 3 Este 8 Nordeste 0 977.9 0.6 75
2019-11-26 18:00:00 16 0 Calma 8 Sudoeste 0 977.6 0.3 63
2019-11-26 17:00:00 16.9 3 Sur 12 Sudoeste 0 977.1 -0.6 60
2019-11-26 16:00:00 18.7 6 Sur 24 Sur 0 977.3 -1.1 52
2019-11-26 15:00:00 20.5 12 Sudoeste 29 Oeste 0 977.3 -2.1 38
2019-11-26 14:00:00 21.7 14 Oeste 27 Oeste 0 977.7 -2.5 30
2019-11-26 13:00:00 21.4 16 Oeste 26 Oeste 0 978.4 -2.3 32
2019-11-26 12:00:00 19 15 Oeste 28 Oeste 0 979.4 -1.1 39
2019-11-26 11:00:00 17.8 4 Oeste 14 Oeste 0 980.2 0.1 43
2019-11-26 10:00:00 14.2 0 Calma 6 Este 0 980.7 0.7 58
2019-11-26 09:00:00 10.8 0 Calma 10 Este 0 980.5 0.5 76
2019-11-26 08:00:00 9.5 2 Nordeste 11 Sudeste 0 980.1 -0.3 79
2019-11-26 07:00:00 10.1 0 Calma 8 Noroeste 0 980 -0.5 78
2019-11-26 06:00:00 12.1 0 Calma 8 Este 0 980 -0.5 73
2019-11-26 05:00:00 13.1 3 Norte 7 Noroeste 0 980.4 -0.1 72
2019-11-26 04:00:00 12.8 4 Este 13 Noroeste 0 980.5 -0.5 72
2019-11-26 03:00:00 15 8 Oeste 13 Noroeste 0 980.5 -0.9 66
2019-11-26 02:00:00 14.9 8 Oeste 17 Norte 0 980.5 -0.7 66
2019-11-26 01:00:00 14.7 5 Noroeste 12 Sudoeste 0 981 0.2 61
2019-11-26 00:00:00 16.4 0 Calma 13 Oeste 0 981.4 0.5 53
2019-11-25 23:00:00 17.2 7 Noroeste 28 Noroeste 0 981.2 0.5 48
2019-11-25 22:00:00 17.9 17 Noroeste 28 Noroeste 0 980.8 0.6 45
2019-11-25 21:00:00 18 11 Noroeste 36 Noroeste 0 980.9 1.2 45
2019-11-25 20:00:00 17.7 22 Noroeste 47 Noroeste 0 980.7 1.2 46
2019-11-25 19:00:00 17.7 12 Noroeste 28 Noroeste 0 980.2 1 47
2019-11-25 18:00:00 18.5 19 Noroeste 44 Noroeste 0 979.7 0.5 43
2019-11-25 17:00:00 19.2 23 Noroeste 42 Noroeste 0 979.5 0 42
2019-11-25 16:00:00 19.5 6 Noroeste 29 Noroeste 0 979.2 -0.9 42
2019-11-25 15:00:00 19.6 17 Noroeste 41 Noroeste 0 979.2 -2 41
2019-11-25 14:00:00 19.8 26 Noroeste 48 Noroeste 0 979.5 -2.2 40
2019-11-25 13:00:00 19.6 13 Oeste 41 Oeste 0 980.1 -1.2 41
2019-11-25 12:00:00 17.7 22 Noroeste 36 Noroeste 0 981.2 0.3 43
2019-11-25 11:00:00 16.7 11 Noroeste 30 Noroeste 0 981.7 0.9 46
2019-11-25 10:00:00 16.1 17 Noroeste 29 Oeste 0 981.3 1 45
2019-11-25 09:00:00 15.3 17 Noroeste 31 Noroeste 0 980.9 0.9 46
2019-11-25 08:00:00 13.2 10 Noroeste 19 Noroeste 0 980.8 0.6 50
2019-11-25 07:00:00 12.9 6 Sudoeste 21 Oeste 0 980.3 -0.1 48
2019-11-25 06:00:00 11.6 6 Sudoeste 22 Oeste 0 980 0 50
2019-11-25 05:00:00 12.1 17 Oeste 30 Oeste 0 980.2 0 47
2019-11-25 04:00:00 11.8 12 Oeste 23 Noroeste 0 980.4 -0.3 47
2019-11-25 03:00:00 11.5 11 Noroeste 22 Noroeste 0 980 -0.5 46
2019-11-25 02:00:00 11.6 6 Sudoeste 33 Oeste 0 980.2 -0.4 43
2019-11-25 01:00:00 11.9 16 Oeste 32 Oeste 0 980.7 0.3 43
2019-11-25 00:00:00 12.2 19 Oeste 40 Oeste 0 980.5 -0.5 42
2019-11-24 23:00:00 11.9 21 Oeste 34 Oeste 0 980.6 1 40
2019-11-24 22:00:00 11.6 17 Noroeste 35 Oeste 0 980.4 0.7 39
2019-11-24 21:00:00 12.4 5 Oeste 36 Noroeste 0 981 1.4 31
2019-11-24 20:00:00 13.4 24 Noroeste 50 Noroeste 0 979.6 0.3 32
2019-11-24 19:00:00 13.3 19 Noroeste 30 Noroeste 0 979.7 1 30
2019-11-24 18:00:00 14 5 Noroeste 30 Noroeste 0 979.6 0.7 24
2019-11-24 17:00:00 15.9 10 Oeste 33 Noroeste 0 979.3 0.3 20
2019-11-24 16:00:00 16.1 18 Noroeste 36 Noroeste 0 978.7 -0.4 21
2019-11-24 15:00:00 15.8 19 Noroeste 42 Noroeste 0 978.9 -1.2 23
2019-11-24 14:00:00 15.3 21 Oeste 50 Noroeste 0 979 -1.7 26
2019-11-24 13:00:00 14.7 28 Oeste 45 Oeste 0 979.1 -0.8 29
2019-11-24 12:00:00 14.5 30 Oeste 45 Noroeste 0 980.1 0.7 30
2019-11-24 11:00:00 13.7 21 Oeste 40 Sudoeste 0 980.7 2.1 33
2019-11-24 10:00:00 12.6 20 Noroeste 51 Noroeste 0 979.9 1.7 34
2019-11-24 09:00:00 10.8 25 Noroeste 39 Noroeste 0 979.4 1.9 39
2019-11-24 08:00:00 10.1 20 Noroeste 34 Noroeste 0 978.6 1.6 40
2019-11-24 07:00:00 10 7 Noroeste 42 Oeste 0 978.2 0.8 39
2019-11-24 06:00:00 10.9 23 Noroeste 49 Noroeste 0 977.5 1.2 37
2019-11-24 05:00:00 10.9 28 Oeste 49 Noroeste 0 977 0.5 38
2019-11-24 04:00:00 10.6 19 Noroeste 54 Noroeste 0 977.4 0.5 37
2019-11-24 03:00:00 11.2 22 Oeste 44 Oeste 0 976.3 -0.4 35
2019-11-24 02:00:00 11.3 12 Oeste 35 Noroeste 0 976.5 -0.1 37
2019-11-24 01:00:00 11.5 23 Noroeste 44 Noroeste 0 976.9 1.1 36
2019-11-24 00:00:00 11.3 23 Noroeste 47 Noroeste 0 976.7 1.8 37
2019-11-23 23:00:00 11.7 8 Oeste 26 Oeste 0 976.6 2.8 37
2019-11-23 22:00:00 10.5 8 Sudoeste 24 Oeste 0 975.8 2.5 38
2019-11-23 21:00:00 12 8 Noroeste 40 Noroeste 0 974.9 2.6 35
2019-11-23 20:00:00 12.1 20 Noroeste 42 Oeste 0 973.8 2.4 34
2019-11-23 19:00:00 12.4 13 Norte 33 Norte 0 973.3 3.1 33
2019-11-23 18:00:00 13 11 Noroeste 38 Oeste 0 972.3 3 30
2019-11-23 17:00:00 14.9 12 Oeste 50 Noroeste 0 971.4 3.4 25
2019-11-23 16:00:00 14.3 14 Noroeste 53 Noroeste 0 970.2 3.4 28
2019-11-23 15:00:00 15.2 26 Noroeste 61 Noroeste 0 969.3 3.7 25
2019-11-23 14:00:00 15.1 26 Noroeste 83 Noroeste 0 968 2.3 25
2019-11-23 13:00:00 14.8 33 Noroeste 73 Noroeste 0 966.8 1.7 27
2019-11-23 12:00:00 14.3 42 Noroeste 99 Noroeste 0 965.6 0.7 30
2019-11-23 11:00:00 14.1 27 Noroeste 77 Noroeste 0 965.7 1.6 31
2019-11-23 10:00:00 13.1 32 Noroeste 66 Noroeste 0 965.1 1.9 36
2019-11-23 09:00:00 12.2 24 Noroeste 72 Noroeste 0 964.9 1.6 40
2019-11-23 08:00:00 11.4 36 Noroeste 67 Noroeste 0 964.1 2.6 43
2019-11-23 07:00:00 11.2 30 Noroeste 96 Noroeste 0 963.2 1.6 43
2019-11-23 06:00:00 12.3 34 Noroeste 76 Oeste 0 963.3 1.9 36
2019-11-23 05:00:00 14.1 33 Oeste 85 Noroeste 0 961.5 -0.2 29
2019-11-23 04:00:00 14.1 37 Noroeste 76 Noroeste 0 961.6 -0.2 31
2019-11-23 03:00:00 13.6 34 Oeste 68 Oeste 0 961.4 -1 37
2019-11-23 02:00:00 13.3 17 Oeste 46 Oeste 0 961.7 -1.5 38
2019-11-23 01:00:00 14.1 35 Oeste 59 Noroeste 0 961.8 -2.1 34
2019-11-23 00:00:00 11.1 18 Oeste 38 Oeste 0.1 962.4 -1.4 81
2019-11-22 23:00:00 11 0 Calma 9 Oeste 0 963.2 -0.5 84
2019-11-22 22:00:00 11.7 0 Calma 8 Noroeste 1.6 963.9 -0.8 84
2019-11-22 21:00:00 12 0 Calma 8 Noroeste 1.8 963.8 -1.1 84
2019-11-22 20:00:00 12 4 Este 10 Este 2.4 963.7 -1.3 84
2019-11-22 19:00:00 12.3 6 Nordeste 15 Este 0.4 964.7 -0.8 83
2019-11-22 18:00:00 13.2 5 Norte 18 Sur 0 964.9 -1.7 76
2019-11-22 17:00:00 13.7 7 Sur 23 Sur 0 965 -2.8 72
2019-11-22 16:00:00 13.7 13 Sur 26 Sudoeste 0 965.5 -4.1 70
2019-11-22 15:00:00 15.4 20 Sudoeste 34 Sudoeste 0 966.6 -3.6 60
2019-11-22 14:00:00 15.4 3 Sudeste 10 Sur 0 967.8 -4 63
2019-11-22 13:00:00 13.5 5 Sudoeste 11 Sudoeste 0 969.6 -2.2 69
2019-11-22 12:00:00 11.8 4 Oeste 12 Oeste 0.2 970.2 -1.3 80
2019-11-22 11:00:00 11 0 Calma 5 Norte 0 971.8 0.6 80
2019-11-22 10:00:00 9.5 0 Calma 4 Oeste 0 971.8 0.2 81
2019-11-22 09:00:00 8.9 0 Calma 6 Noroeste 0 971.5 -0.2 81
2019-11-22 08:00:00 8.3 3 Nordeste 7 Nordeste 0 971.2 -0.7 82
2019-11-22 07:00:00 7.8 0 Calma 9 Nordeste 0 971.6 -0.8 82
2019-11-22 06:00:00 7.9 0 Calma 6 Nordeste 0 971.7 -0.9 82
2019-11-22 05:00:00 8 0 Calma 5 Este 0 971.9 -1 82
2019-11-22 04:00:00 8.5 0 Calma 6 Sur 0 972.4 -1 81
2019-11-22 03:00:00 8.7 0 Calma 9 Nordeste 0 972.6 -1.3 81
2019-11-22 02:00:00 9 3 Nordeste 6 Norte 0 972.9 -1.1 80
2019-11-22 01:00:00 9.7 2 Sudoeste 7 Este 0 973.4 -0.8 77
2019-11-22 00:00:00 11 4 Norte 6 Norte 0 973.9 -0.2 71
2019-11-21 23:00:00 10.9 0 Calma 6 Nordeste 0 974 0 72
2019-11-21 22:00:00 11.1 2 Nordeste 6 Nordeste 0 974.2 0.6 70
2019-11-21 21:00:00 11.6 0 Calma 7 Nordeste 0 974.1 0.4 68
2019-11-21 20:00:00 12.1 4 Nordeste 8 Este 0 974 0.2 65
2019-11-21 19:00:00 12.5 2 Este 10 Nordeste 0 973.6 -0.4 63
2019-11-21 18:00:00 13.4 6 Nordeste 9 Nordeste 0 973.7 0 49
2019-11-21 17:00:00 14.6 3 Sur 12 Sur 0 973.8 -0.9 43
2019-11-21 16:00:00 15.5 6 Sur 11 Sur 0 974 -1.2 38
2019-11-21 15:00:00 16.5 2 Sudoeste 8 Sudoeste 0 973.7 -2.1 36
2019-11-21 14:00:00 14.9 3 Sur 7 Sudoeste 0 974.7 -1.3 39
2019-11-21 13:00:00 14.4 2 Sur 8 Oeste 0 975.2 -0.8 44
2019-11-21 12:00:00 13 3 Sudoeste 6 Sudoeste 0 975.8 0.4 51
2019-11-21 11:00:00 11.7 0 Calma 6 Sudoeste 0 976 1.1 59
2019-11-21 10:00:00 9.4 3 Sur 6 Sur 0 976 1.5 62
2019-11-21 09:00:00 8.6 5 Sur 14 Sur 0 975.4 1.3 64
2019-11-21 08:00:00 -- -- -- -- -- -- -- -- --
2019-11-21 07:00:00 -- -- -- -- -- -- -- -- --
2019-11-21 06:00:00 -- -- -- -- -- -- -- -- --
2019-11-21 05:00:00 -- -- -- -- -- -- -- -- --
2019-11-21 04:00:00 -- -- -- -- -- -- -- -- --
2019-11-21 03:00:00 -- -- -- -- -- -- -- -- --
2019-11-21 02:00:00 -- -- -- -- -- -- -- -- --
2019-11-21 01:00:00 -- -- -- -- -- -- -- -- --
2019-11-21 00:00:00 -- -- -- -- -- -- -- -- --
2019-11-20 23:00:00 -- -- -- -- -- -- -- -- --
2019-11-20 22:00:00 -- -- -- -- -- -- -- -- --
2019-11-20 21:00:00 -- -- -- -- -- -- -- -- --
2019-11-20 20:00:00 -- -- -- -- -- -- -- -- --
2019-11-20 19:00:00 11.4 4 Este 10 Este 0 974.5 -0.3 78
2019-11-20 18:00:00 12 5 Este 12 Sudeste 0 974.6 -0.2 71
2019-11-20 17:00:00 13.3 0 Calma 11 Sudoeste 0 974.7 -0.7 55
2019-11-20 16:00:00 13.4 6 Sudoeste 16 Sudoeste 0 974.8 -1.7 55
2019-11-20 15:00:00 14.2 8 Sudoeste 16 Sudoeste 0 974.8 -2.4 41
2019-11-20 14:00:00 14.9 7 Sur 17 Sudoeste 0 975.4 -2.6 34
2019-11-20 13:00:00 14.2 7 Sur 16 Sur 0 976.5 -2.1 36
2019-11-20 12:00:00 14 0 Calma 7 Sudoeste 0 977.2 -1.2 37
2019-11-20 11:00:00 12.1 0 Calma 4 Sur 0 978 0.6 43
2019-11-20 10:00:00 9.1 0 Calma 3 Noroeste 0 978.6 1.1 59
2019-11-20 09:00:00 6.6 0 Calma 2 Sur 0 978.4 0.8 69
2019-11-20 08:00:00 4.1 0 Calma 3 Oeste 0 977.4 -0.4 80
2019-11-20 07:00:00 5.1 0 Calma 4 Noroeste 0 977.5 -0.8 78
2019-11-20 06:00:00 5.7 2 Sudoeste 7 Oeste 0 977.6 -1.1 78
2019-11-20 05:00:00 5.2 0 Calma 4 Oeste 0 977.8 -1.3 81
2019-11-20 04:00:00 6.2 0 Calma 5 Norte 0 978.3 -1.3 77
2019-11-20 03:00:00 6.2 0 Calma 0 Calma 0 978.7 -1.3 79
2019-11-20 02:00:00 6.6 0 Calma 5 Noroeste 0 979.1 -0.8 80
2019-11-20 01:00:00 6.6 2 Nordeste 5 Nordeste 0 979.6 -0.6 79
2019-11-20 00:00:00 6.7 0 Calma 6 Sudoeste 0 980 -0.2 77
2019-11-19 23:00:00 6.9 0 Calma 0 Calma 0 979.9 -0.4 82
2019-11-19 22:00:00 7.8 3 Noroeste 5 Sudoeste 0 980.2 0 78
2019-11-19 21:00:00 8.8 0 Calma 4 Sudoeste 0 980.2 0.2 78
2019-11-19 20:00:00 9.5 5 Nordeste 8 Nordeste 0 980.3 0.5 75
2019-11-19 19:00:00 11.1 3 Nordeste 10 Sudeste 0 980.2 0.5 69
2019-11-19 18:00:00 12.1 3 Sur 14 Sur 0 980 0.1 65
2019-11-19 17:00:00 12.3 9 Sur 18 Sudeste 0 979.8 -0.9 55
2019-11-19 16:00:00 13.3 8 Sur 23 Sur 0 979.7 -1.8 52
2019-11-19 15:00:00 14.1 14 Sur 24 Sudoeste 0 979.9 -2.6 43
2019-11-19 14:00:00 15.3 12 Sudoeste 22 Sudoeste 0 980.7 -2.4 25
2019-11-19 13:00:00 15.2 4 Oeste 21 Oeste 0 981.5 -2 27
2019-11-19 12:00:00 13.2 12 Oeste 21 Oeste 0 982.5 -0.4 35
2019-11-19 11:00:00 11.9 5 Oeste 10 Sudoeste 0 983.1 1.1 47
2019-11-19 10:00:00 8.9 2 Sudoeste 7 Este 0 983.5 2 53
2019-11-19 09:00:00 6.9 0 Calma 5 Oeste 0 982.9 1.6 64
2019-11-19 08:00:00 4.9 0 Calma 8 Sudeste 0 982 0.8 69
2019-11-19 07:00:00 5.8 3 Sur 8 Sur 0 981.5 0.1 64
2019-11-19 06:00:00 6.4 3 Sudoeste 6 Sudoeste 0 981.3 -0.1 62
2019-11-19 05:00:00 5 4 Noroeste 8 Noroeste 0 981.2 -0.1 67
2019-11-19 04:00:00 5.4 0 Calma 5 Oeste 0 981.4 -0.1 64
2019-11-19 03:00:00 5.8 0 Calma 7 Norte 0 981.4 -0.1 60
2019-11-19 02:00:00 6.6 0 Calma 9 Sudeste 0 981.3 -0.1 56
2019-11-19 01:00:00 6.6 4 Este 12 Nordeste 0 981.5 0.4 54
2019-11-19 00:00:00 7 7 Nordeste 10 Nordeste 0 981.5 1 52
2019-11-18 23:00:00 7.5 2 Sudoeste 9 Nordeste 0 981.4 1.2 51
2019-11-18 22:00:00 8.2 6 Nordeste 10 Nordeste 0 981.1 1.6 46
2019-11-18 21:00:00 10 5 Oeste 15 Noroeste 0 980.5 2 43
2019-11-18 20:00:00 10.7 10 Noroeste 22 Noroeste 0 980.2 2.7 40
2019-11-18 19:00:00 11.6 5 Noroeste 26 Noroeste 0 979.5 2.6 37
2019-11-18 18:00:00 13.1 12 Noroeste 33 Oeste 0 978.5 2.3 28
2019-11-18 17:00:00 15.2 13 Noroeste 44 Oeste 0 977.5 1.2 25
2019-11-18 16:00:00 15.2 27 Oeste 46 Oeste 0 976.9 0.4 28
2019-11-18 15:00:00 16.9 9 Norte 46 Oeste 0 976.2 -0.3 24
2019-11-18 14:00:00 16.9 14 Noroeste 35 Noroeste 0 976.3 0.3 25
2019-11-18 13:00:00 15.4 12 Norte 37 Noroeste 0 976.5 0.4 27
2019-11-18 12:00:00 14.2 22 Oeste 38 Noroeste 0 976.5 2.4 35
2019-11-18 11:00:00 13.2 17 Oeste 31 Noroeste 0 976 2.3 40
2019-11-18 10:00:00 11.9 15 Sudoeste 32 Oeste 0 976.1 2.6 48
2019-11-18 09:00:00 10.2 10 Noroeste 27 Norte 0 974.1 0 55
2019-11-18 08:00:00 8.7 8 Noroeste 39 Noroeste 0 973.7 0.6 66
2019-11-18 07:00:00 9.2 23 Oeste 36 Oeste 1 973.5 0.2 74
2019-11-18 06:00:00 9.6 2 Norte 26 Este 1.4 974.1 0.8 81
2019-11-18 05:00:00 11.9 3 Nordeste 20 Oeste 0.1 973.1 -0.3 70
2019-11-18 04:00:00 12.4 6 Sudoeste 14 Noroeste 0.1 973.3 -1 65
2019-11-18 03:00:00 14.5 5 Norte 14 Sudoeste 0 973.3 -1.6 54
2019-11-18 02:00:00 14.9 5 Oeste 26 Oeste 0 973.4 -2.2 53
2019-11-18 01:00:00 11.7 2 Sudeste 16 Oeste 0 974.3 -1.8 60
2019-11-18 00:00:00 12.1 0 Calma 8 Sudeste 0 974.9 -1.9 56
2019-11-17 23:00:00 12.5 4 Sur 10 Norte 0 975.6 -1.7 56
2019-11-17 22:00:00 13.1 0 Calma 8 Sudoeste 0 976.1 -1.1 54
2019-11-17 21:00:00 12.9 6 Sudoeste 20 Noroeste 0 976.8 -0.9 53
2019-11-17 20:00:00 12.7 5 Sudoeste 35 Noroeste 0 977.3 -0.8 54
2019-11-17 19:00:00 13.6 22 Noroeste 46 Noroeste 0 977.2 -1.2 52
2019-11-17 18:00:00 13.4 21 Noroeste 47 Norte 0 977.7 -1.2 50
2019-11-17 17:00:00 14 31 Noroeste 52 Noroeste 0 978.1 -1.4 46
2019-11-17 16:00:00 14.4 21 Noroeste 41 Noroeste 0 978.4 -1.8 43
2019-11-17 15:00:00 14.4 19 Oeste 36 Oeste 0 978.9 -2.4 39
2019-11-17 14:00:00 13.7 23 Noroeste 39 Noroeste 0 979.5 -2.7 34
2019-11-17 13:00:00 13.6 15 Oeste 40 Noroeste 0 980.2 -2 31
2019-11-17 12:00:00 14.3 19 Oeste 42 Oeste 0 981.3 -0.4 30
2019-11-17 11:00:00 14.1 20 Noroeste 41 Oeste 0 982.2 1.3 32
2019-11-17 10:00:00 11 8 Sudoeste 39 Noroeste 0 982.2 1.2 38
2019-11-17 09:00:00 9.8 13 Noroeste 48 Noroeste 0 981.7 1.3 41
2019-11-17 08:00:00 8.3 12 Oeste 25 Noroeste 0 980.9 0.3 43
2019-11-17 07:00:00 6.6 3 Sudeste 23 Noroeste 0 981 0.1 44
2019-11-17 06:00:00 7.3 5 Noroeste 18 Noroeste 0 980.4 -0.6 44
2019-11-17 05:00:00 7.7 12 Noroeste 23 Oeste 0 980.6 -0.4 44
2019-11-17 04:00:00 7.6 2 Sudoeste 14 Noroeste 0 980.9 -0.3 44
2019-11-17 03:00:00 7.8 13 Noroeste 22 Sudoeste 0 981 -0.1 43
2019-11-17 02:00:00 8.5 14 Oeste 25 Noroeste 0 981 -0.7 41
2019-11-17 01:00:00 8.7 17 Oeste 33 Oeste 0 981.2 -0.5 41
2019-11-17 00:00:00 9.2 19 Noroeste 34 Noroeste 0 981.1 0 41
2019-11-16 23:00:00 8.9 12 Noroeste 27 Noroeste 0 981.7 1.1 42
2019-11-16 22:00:00 8.4 9 Noroeste 19 Noroeste 0 981.7 1.6 42
2019-11-16 21:00:00 8.8 8 Oeste 18 Oeste 0 981.1 2 41
2019-11-16 20:00:00 9.4 7 Oeste 26 Noroeste 0 980.6 2.3 39
2019-11-16 19:00:00 10.3 15 Noroeste 35 Oeste 0 980.1 2.4 37
2019-11-16 18:00:00 11.7 17 Oeste 40 Noroeste 0 979.1 1.7 32
2019-11-16 17:00:00 13.6 22 Oeste 44 Oeste 0 978.3 0.8 30
2019-11-16 16:00:00 14.6 22 Oeste 42 Noroeste 0 977.7 0.2 28
2019-11-16 15:00:00 14.7 21 Oeste 37 Noroeste 0 977.4 -0.7 28
2019-11-16 14:00:00 14.7 19 Noroeste 36 Noroeste 0 977.5 -0.7 29
2019-11-16 13:00:00 13.5 18 Oeste 45 Sudoeste 0 977.5 -0.6 33
2019-11-16 12:00:00 12.2 23 Oeste 45 Noroeste 0 978.1 0.6 37
2019-11-16 11:00:00 11 21 Oeste 41 Noroeste 0 978.2 2.3 40
2019-11-16 10:00:00 10 18 Oeste 31 Oeste 0 978.1 3.2 45
2019-11-16 09:00:00 8 15 Noroeste 26 Oeste 0 977.5 3.5 48
2019-11-16 08:00:00 5.9 12 Noroeste 23 Noroeste 0 975.9 2.1 53
2019-11-16 07:00:00 5.8 13 Noroeste 24 Noroeste 0 974.9 1.6 53
2019-11-16 06:00:00 6.5 11 Noroeste 24 Noroeste 0 974 1.2 50
2019-11-16 05:00:00 6.7 14 Noroeste 19 Noroeste 0 973.8 1 50
2019-11-16 04:00:00 6.6 6 Noroeste 10 Noroeste 0 973.3 0.6 51
2019-11-16 03:00:00 7 8 Noroeste 16 Oeste 0 972.8 -0.1 50
2019-11-16 02:00:00 7.5 6 Oeste 15 Noroeste 0 972.8 0.3 49
2019-11-16 01:00:00 7.7 10 Noroeste 17 Noroeste 0 972.7 0.6 49
2019-11-16 00:00:00 7.2 4 Oeste 10 Oeste 0 972.9 1.5 48